Accueil
METAR-TAF:

METAR-TAF

Aéroports :

Aéroport de Francfort-sur-le-Main

Francfort-sur-le-Main, Allemagne

latitude: 50-03N, longitude: 008-36E, altitude: 111 m

Observation

Le bulletin a été fait il y a 32 minutes, à 11:50 UTC
Vent 8 kt de ouest/nord-ouest avec des rafales jusqu'à 19 kt, variant entre sud-ouest et nord
Température 27°C
Humidité 28%
Pression 1017 hPa
Visibilité 10 km ou plus
pas de nuages en-dessous de 1500 mètres et pas de cumulonimbus.

METAR: EDDF 181150Z 30008G19KT 220V010 CAVOK 27/07 Q1017 NOSIG

Heure: 14:22 (12:22 UTC)

Prévision

Le bulletin a été fait il y a 1 heure et 22 minutes, à 11:00 UTC
Prévision valable du 18 à 12 UTC au 19 à 18 UTC
Vent 10 kt de nord/nord-ouest
Visibilité 10 km ou plus
pas de nuages en-dessous de 1500 mètres et pas de cumulonimbus.
Evoluant progressivement
du 18 à 17 UTC au 18 à 19 UTC
Vent 6 kt de nord/nord-est

TAF: EDDF 181100Z 1812/1918 33010KT CAVOK BECMG 1817/1819 03006KT

Observations et prévisions météorologiques de plus de 4000 aéroports (messages METAR et TAF).

Les stations disponibles sont représentées par des disques jaunes et rouges sur la carte.

Passer la souris dessus pour voir le nom de la station.

Cliquer dessus pour voir les observations et prévisions météorologiques.

Pour changer de carte: cliquez sur les boutons verts avec une croix noire pour zoomer, sur le bouton vert avec un tiret pour effectuer un zoom arrière, ou sur les flèches vertes pour les cartes adjacentes.


METAR-TAF: